Time;durP1;ratioP1;P1;durP2;ratioP2;P2;SDS_P1;SDS_P2;PMS_P1;PMS_P2;Temp;Humidity;BMP_temperature;BMP_pressure;BME280_temperature;BME280_humidity;BME280_pressure;Samples;Min_cycle;Max_cycle;Signal;HPM_P1;HPM_P2
2021/09/20 02:32:57;;;;;;;16.65;13.18;;;8.30;99.90;;;;;;5038838;23;20467;-96
2021/09/20 02:35:38;;;;;;;18.10;13.45;;;8.10;99.90;;;;;;4944374;29;20435;-96
2021/09/20 02:44:12;;;;;;;17.10;12.55;;;8.40;99.90;;;;;;4938715;23;20472;31
2021/09/20 02:46:45;;;;;;;15.52;12.38;;;8.50;99.90;;;;;;4938750;29;20512;-95
2021/09/20 02:49:16;;;;;;;17.35;12.63;;;8.40;99.90;;;;;;4972050;23;20925;-96
2021/09/20 02:51:53;;;;;;;21.42;12.77;;;8.40;99.90;;;;;;5048923;23;20424;-96
2021/09/20 02:54:48;;;;;;;17.90;12.43;;;8.30;99.90;;;;;;5007750;23;21720;-96
2021/09/20 05:49:27;;;;;;;14.20;10.05;;;8.10;99.90;;;;;;5436025;23;20397;31
2021/09/20 09:35:11;;;;;;;10.98;7.47;;;9.90;99.90;;;;;;6169273;22;20443;-95
2021/09/20 09:38:08;;;;;;;10.50;7.15;;;9.90;99.90;;;;;;6157808;23;20404;-95
2021/09/20 09:40:49;;;;;;;10.48;6.93;;;10.00;99.90;;;;;;6134638;23;20399;-95
2021/09/20 09:43:35;;;;;;;9.48;6.93;;;10.20;99.90;;;;;;6204030;23;20368;-94
2021/09/20 09:46:24;;;;;;;11.17;7.07;;;10.30;99.90;;;;;;6192110;23;20385;-96
2021/09/20 09:49:10;;;;;;;9.52;6.82;;;10.20;99.90;;;;;;6162279;23;20403;-95
2021/09/20 09:52:20;;;;;;;11.80;7.10;;;10.10;99.90;;;;;;6179965;23;20413;-94
2021/09/20 09:55:02;;;;;;;12.25;7.00;;;10.30;99.90;;;;;;6197055;23;20415;-94
2021/09/20 09:57:48;;;;;;;;;;;;;;;;;;;;;
2021/09/20 10:00:36;;;;;;;10.40;7.25;;;10.70;99.90;;;;;;6210786;23;20412;-95
2021/09/20 10:03:09;;;;;;;11.43;6.70;;;10.80;99.90;;;;;;6167745;23;20401;-94
2021/09/20 10:06:27;;;;;;;9.82;6.80;;;11.20;99.90;;;;;;6171661;23;20393;-95
2021/09/20 10:13:17;;;;;;;10.20;6.60;;;12.00;99.90;;;;;;6078173;23;20491;-96
2021/09/20 10:15:47;;;;;;;12.05;6.88;;;12.20;99.90;;;;;;6046411;23;20804;-95
2021/09/20 10:18:42;;;;;;;9.65;6.40;;;12.00;99.90;;;;;;6051263;23;20766;-95
2021/09/20 10:21:12;;;;;;;9.20;6.30;;;12.20;99.90;;;;;;6078336;23;20400;-96
2021/09/20 10:23:48;;;;;;;10.43;6.38;;;12.30;99.90;;;;;;6055466;23;20416;-95
2021/09/20 10:26:38;;;;;;;;;;;;;;;;;;;;;
2021/09/20 11:01:44;;;;;;;12.95;8.23;;;10.20;99.90;;;;;;6148306;23;20398;-95
2021/09/20 11:46:38;;;;;;;10.90;6.60;;;11.20;99.90;;;;;;6150875;23;20436;-94
2021/09/20 11:49:50;;;;;;;12.35;6.55;;;11.10;99.90;;;;;;6114837;23;20383;-95
2021/09/20 11:53:22;;;;;;;;;;;;;;;;;;;;;
2021/09/20 11:56:29;;;;;;;8.88;6.90;;;11.10;99.90;;;;;;6065059;23;20357;-94
2021/09/20 11:59:36;;;;;;;13.32;6.90;;;11.10;99.90;;;;;;6168975;23;20409;-94
2021/09/20 17:28:03;;;;;;;12.02;7.32;;;8.40;99.90;;;;;;6184788;23;20397;-96
2021/09/20 17:30:35;;;;;;;15.20;7.03;;;8.40;99.90;;;;;;6137485;23;20397;-96
2021/09/20 17:33:06;;;;;;;10.95;8.10;;;8.40;99.90;;;;;;6187120;23;20404;-95
2021/09/20 17:35:37;;;;;;;11.00;7.50;;;8.40;99.90;;;;;;6186731;23;20393;-96
2021/09/20 17:38:10;;;;;;;12.77;7.85;;;8.40;99.90;;;;;;6141892;23;20932;-95
2021/09/20 17:40:38;;;;;;;12.03;7.97;;;8.30;99.90;;;;;;6163080;23;20838;-95
2021/09/20 17:43:07;;;;;;;11.45;7.53;;;8.30;99.90;;;;;;6162224;23;20396;-96
2021/09/20 17:45:34;;;;;;;11.40;7.72;;;8.40;99.90;;;;;;6161993;23;20700;-96
2021/09/20 17:48:07;;;;;;;15.07;7.82;;;8.30;99.90;;;;;;6162868;23;20388;-96
2021/09/20 17:50:45;;;;;;;10.95;7.68;;;8.30;99.90;;;;;;6163675;23;20881;-95
2021/09/20 17:53:12;;;;;;;14.13;8.48;;;8.30;99.90;;;;;;6161332;23;20419;-95
2021/09/20 17:55:40;;;;;;;13.88;8.80;;;8.20;99.90;;;;;;6161653;23;20393;-96
2021/09/20 17:58:08;;;;;;;11.77;8.67;;;8.20;99.90;;;;;;6162621;23;20452;-95
2021/09/20 18:00:36;;;;;;;11.88;8.27;;;8.20;99.90;;;;;;6161465;23;20531;-96
2021/09/20 18:03:08;;;;;;;13.65;8.85;;;8.20;99.90;;;;;;6161224;23;20912;-95
2021/09/20 18:08:27;;;;;;;12.65;8.32;;;8.20;99.90;;;;;;6067122;23;20964;-95
2021/09/20 18:10:54;;;;;;;16.30;9.23;;;8.20;99.90;;;;;;6044827;23;20400;-96
2021/09/20 18:13:22;;;;;;;14.07;8.93;;;8.20;99.90;;;;;;6044440;23;20424;-95
2021/09/20 18:15:55;;;;;;;11.27;8.63;;;8.30;99.90;;;;;;6044171;23;20392;-95
2021/09/20 18:18:24;;;;;;;12.65;8.80;;;8.20;99.90;;;;;;6044733;23;21037;-95
2021/09/20 18:20:51;;;;;;;17.58;9.75;;;8.20;99.90;;;;;;6043821;23;20443;-96
2021/09/20 18:23:18;;;;;;;12.13;9.20;;;8.10;99.90;;;;;;6043547;23;20410;-96
2021/09/20 18:25:45;;;;;;;12.60;9.00;;;8.10;99.90;;;;;;6044172;23;20475;-96
2021/09/20 18:28:12;;;;;;;13.57;9.10;;;8.10;99.90;;;;;;6046382;23;20420;-95
2021/09/20 18:30:50;;;;;;;12.90;9.38;;;8.10;99.90;;;;;;6053413;23;20398;-95
2021/09/20 18:33:22;;;;;;;14.05;9.52;;;8.10;99.90;;;;;;6058013;23;20396;-96
2021/09/20 18:35:53;;;;;;;12.83;9.00;;;8.10;99.90;;;;;;6050026;23;20951;-96
2021/09/20 18:38:22;;;;;;;12.17;9.20;;;8.10;99.90;;;;;;6048883;23;20415;-96
2021/09/20 18:40:53;;;;;;;14.57;8.80;;;8.00;99.90;;;;;;6047228;23;20456;-96
2021/09/20 18:43:22;;;;;;;12.80;9.15;;;8.00;99.90;;;;;;6047207;23;20487;-96
2021/09/20 18:45:53;;;;;;;13.93;8.68;;;8.00;99.90;;;;;;6117941;23;20389;-96
2021/09/20 18:48:25;;;;;;;12.23;9.13;;;8.00;99.90;;;;;;6163421;23;20475;-96
2021/09/20 18:50:52;;;;;;;13.15;9.15;;;8.10;99.90;;;;;;6163158;23;20401;-96
2021/09/20 18:53:22;;;;;;;15.35;9.10;;;8.10;99.90;;;;;;6162672;23;20389;-96
2021/09/20 18:55:50;;;;;;;13.30;9.10;;;8.10;99.90;;;;;;6138773;23;20386;-96
2021/09/20 18:58:18;;;;;;;13.77;9.20;;;8.00;99.90;;;;;;6162879;23;20416;-96
2021/09/20 19:00:45;;;;;;;13.98;9.30;;;8.00;99.90;;;;;;6163599;23;20480;-96
2021/09/20 19:03:17;;;;;;;16.17;9.55;;;8.00;99.90;;;;;;6163688;23;20558;-96
2021/09/20 19:05:45;;;;;;;14.43;9.57;;;8.00;99.90;;;;;;6163593;23;20412;-96
2021/09/20 19:08:42;;;;;;;;;;;;;;;;;;;;;
2021/09/20 19:11:30;;;;;;;13.18;9.30;;;8.00;99.90;;;;;;6182080;23;20968;-96
2021/09/20 19:13:59;;;;;;;13.40;8.85;;;8.10;99.90;;;;;;6163411;23;20389;-96
2021/09/20 19:16:31;;;;;;;14.20;9.02;;;8.30;99.90;;;;;;6165548;23;20464;-96
2021/09/20 19:19:04;;;;;;;13.07;9.00;;;8.30;99.90;;;;;;6162931;23;20393;-96
2021/09/20 19:21:34;;;;;;;11.65;8.77;;;8.30;99.90;;;;;;6183178;23;20440;-96
2021/09/20 19:24:01;;;;;;;11.07;8.57;;;8.20;99.90;;;;;;6187869;23;20456;-96
2021/09/20 19:26:31;;;;;;;11.98;8.77;;;8.30;99.90;;;;;;6183835;23;20445;-96
2021/09/20 19:28:59;;;;;;;10.70;7.73;;;8.30;99.90;;;;;;6176672;23;20719;-95
2021/09/20 19:31:26;;;;;;;13.30;9.02;;;8.50;99.90;;;;;;6141420;23;20425;-96
2021/09/20 19:33:54;;;;;;;12.93;8.70;;;8.30;99.90;;;;;;6164025;23;20424;-96
2021/09/20 19:36:24;;;;;;;15.82;8.82;;;8.30;99.90;;;;;;6164022;23;20481;-96
2021/09/20 19:38:54;;;;;;;14.20;9.02;;;8.30;99.90;;;;;;6164352;23;20452;-96
2021/09/20 19:41:25;;;;;;;12.90;8.98;;;8.20;99.90;;;;;;6164961;23;20386;-96
2021/09/20 19:43:53;;;;;;;13.10;8.95;;;8.10;99.90;;;;;;6163461;23;20450;-96
2021/09/20 19:46:22;;;;;;;12.23;9.17;;;8.10;99.90;;;;;;6164924;23;20396;-96
2021/09/20 19:48:50;;;;;;;14.70;10.20;;;8.10;99.90;;;;;;6164049;23;20390;-96
2021/09/20 19:51:26;;;;;;;13.63;9.75;;;8.00;99.90;;;;;;6164477;23;20432;-96
2021/09/20 19:54:04;;;;;;;12.50;9.82;;;7.90;99.90;;;;;;6145556;23;20391;-96
2021/09/20 19:56:38;;;;;;;12.73;8.95;;;7.90;99.90;;;;;;6168266;23;20430;-96
2021/09/20 19:59:09;;;;;;;13.60;8.40;;;7.90;99.90;;;;;;6165787;23;20876;-96
2021/09/20 20:01:42;;;;;;;11.35;8.30;;;8.10;99.90;;;;;;6169377;23;20377;-96
2021/09/20 20:05:15;;;;;;;10.80;8.13;;;8.10;99.90;;;;;;6151330;23;20904;-96
2021/09/20 20:07:45;;;;;;;11.15;7.30;;;8.20;99.90;;;;;;6166174;23;20457;-96
2021/09/20 20:10:18;;;;;;;12.05;7.85;;;8.30;99.90;;;;;;6163889;23;20389;-96
2021/09/20 20:12:56;;;;;;;11.63;7.60;;;8.20;99.90;;;;;;6166487;23;20417;-96
2021/09/20 20:15:31;;;;;;;8.98;7.15;;;8.30;99.90;;;;;;6171641;23;20385;-96
2021/09/20 20:18:18;;;;;;;8.73;6.97;;;8.30;99.90;;;;;;6180040;23;20404;-96
2021/09/20 20:21:07;;;;;;;9.97;7.03;;;8.30;99.90;;;;;;6197666;23;20381;-96
2021/09/20 20:23:48;;;;;;;9.82;7.28;;;8.40;99.90;;;;;;6170030;23;20395;-96
2021/09/20 20:26:25;;;;;;;12.97;7.43;;;8.40;99.90;;;;;;6146800;23;20397;-96
2021/09/20 20:29:06;;;;;;;12.80;8.50;;;8.50;99.90;;;;;;6168255;23;20405;-96
2021/09/20 20:31:37;;;;;;;11.93;8.13;;;8.50;99.90;;;;;;6167736;23;20456;-96
2021/09/20 20:34:12;;;;;;;13.37;8.30;;;8.40;99.90;;;;;;6168109;23;20389;-96
2021/09/20 20:36:50;;;;;;;11.10;8.85;;;8.50;99.90;;;;;;6164572;23;20373;-96
2021/09/20 20:39:19;;;;;;;16.38;9.35;;;8.30;99.90;;;;;;6160277;23;20393;-96
2021/09/20 20:41:46;;;;;;;11.18;8.55;;;8.40;99.90;;;;;;6164435;23;20417;-96
2021/09/20 20:44:13;;;;;;;14.47;9.17;;;8.40;99.90;;;;;;6160447;23;20409;-96
2021/09/20 20:46:42;;;;;;;12.48;8.70;;;8.40;99.90;;;;;;6159950;23;20393;-96
2021/09/20 20:49:09;;;;;;;12.02;9.35;;;8.20;99.90;;;;;;6160590;23;20385;-96
2021/09/20 20:51:37;;;;;;;11.07;9.03;;;8.10;99.90;;;;;;6160539;23;20400;-96
2021/09/20 20:54:04;;;;;;;13.77;9.50;;;8.30;99.90;;;;;;6161002;23;20389;-96
2021/09/20 20:56:32;;;;;;;14.30;8.20;;;8.30;99.90;;;;;;6169682;23;20389;-96
2021/09/20 20:58:59;;;;;;;12.25;7.88;;;8.30;99.90;;;;;;6163513;23;20365;-96
2021/09/20 21:01:27;;;;;;;11.23;7.40;;;8.40;99.90;;;;;;6185779;23;20474;-96
2021/09/20 21:03:54;;;;;;;12.77;7.63;;;8.30;99.90;;;;;;6179171;23;20736;-96
2021/09/20 21:06:22;;;;;;;13.25;7.80;;;8.30;99.90;;;;;;6169165;23;20420;-96
2021/09/20 21:08:49;;;;;;;9.90;7.82;;;8.20;99.90;;;;;;6161152;23;20468;-96
2021/09/20 21:11:16;;;;;;;10.40;7.53;;;8.10;99.90;;;;;;6161618;23;20392;-96
2021/09/20 21:13:44;;;;;;;11.35;7.68;;;8.20;99.90;;;;;;6161617;23;20420;-96
2021/09/20 21:16:11;;;;;;;13.07;7.53;;;8.10;99.90;;;;;;6161031;23;20391;-96
2021/09/20 21:18:38;;;;;;;12.48;7.47;;;8.00;99.90;;;;;;6162162;23;20389;-96
2021/09/20 21:21:06;;;;;;;12.50;7.50;;;7.90;99.90;;;;;;6162187;23;20385;-96
2021/09/20 21:23:33;;;;;;;11.27;7.55;;;7.80;99.90;;;;;;6163793;23;20416;-96
2021/09/20 21:26:01;;;;;;;13.75;7.60;;;7.80;99.90;;;;;;6166973;23;20385;-96
2021/09/20 21:28:28;;;;;;;13.73;7.65;;;7.90;99.90;;;;;;6162703;23;20438;-95
2021/09/20 21:30:55;;;;;;;11.65;7.88;;;7.90;99.90;;;;;;6187443;23;20436;-96
2021/09/20 21:38:25;;;;;;;13.35;7.90;;;7.90;99.90;;;;;;6203736;23;20384;-96
